sensor_id;sensor_type;location;lat;lon;timestamp;pressure;altitude;pressure_sealevel;temperature;humidity
76478;BME280;65309;49.790;18.972;2022-12-18T00:00:39;98263.47;;;-6.37;85.83
76478;BME280;65309;49.790;18.972;2022-12-18T00:06:02;98269.56;;;-6.28;86.40
76478;BME280;65309;49.790;18.972;2022-12-18T00:11:07;98274.75;;;-6.23;86.63
76478;BME280;65309;49.790;18.972;2022-12-18T00:16:11;98279.31;;;-6.35;86.13
76478;BME280;65309;49.790;18.972;2022-12-18T00:21:14;98287.16;;;-5.97;86.66
76478;BME280;65309;49.790;18.972;2022-12-18T00:26:19;98292.25;;;-6.17;86.25
76478;BME280;65309;49.790;18.972;2022-12-18T00:31:23;98292.56;;;-6.51;86.79
76478;BME280;65309;49.790;18.972;2022-12-18T00:36:27;98285.28;;;-6.18;86.38
76478;BME280;65309;49.790;18.972;2022-12-18T00:41:32;98301.09;;;-6.28;85.98
76478;BME280;65309;49.790;18.972;2022-12-18T00:46:52;98302.50;;;-6.43;86.39
76478;BME280;65309;49.790;18.972;2022-12-18T00:51:54;98310.16;;;-6.33;85.29
76478;BME280;65309;49.790;18.972;2022-12-18T00:56:57;98327.75;;;-6.35;86.38
76478;BME280;65309;49.790;18.972;2022-12-18T01:01:59;98327.91;;;-6.53;86.91
76478;BME280;65309;49.790;18.972;2022-12-18T01:07:01;98336.41;;;-6.30;86.26
76478;BME280;65309;49.790;18.972;2022-12-18T01:12:06;98345.50;;;-5.89;84.84
76478;BME280;65309;49.790;18.972;2022-12-18T01:17:07;98340.13;;;-5.89;85.55
76478;BME280;65309;49.790;18.972;2022-12-18T01:22:09;98341.47;;;-5.71;85.03
76478;BME280;65309;49.790;18.972;2022-12-18T01:27:13;98333.34;;;-5.83;84.38
76478;BME280;65309;49.790;18.972;2022-12-18T01:32:15;98352.91;;;-5.74;84.45
76478;BME280;65309;49.790;18.972;2022-12-18T01:37:17;98350.31;;;-5.95;84.50
76478;BME280;65309;49.790;18.972;2022-12-18T01:42:20;98349.25;;;-6.15;85.11
76478;BME280;65309;49.790;18.972;2022-12-18T01:47:25;98344.97;;;-6.16;85.54
76478;BME280;65309;49.790;18.972;2022-12-18T01:52:29;98363.91;;;-5.91;85.72
76478;BME280;65309;49.790;18.972;2022-12-18T01:57:34;98357.28;;;-5.94;85.17
76478;BME280;65309;49.790;18.972;2022-12-18T02:02:36;98374.44;;;-5.98;85.11
76478;BME280;65309;49.790;18.972;2022-12-18T02:07:46;98378.16;;;-5.91;84.85
76478;BME280;65309;49.790;18.972;2022-12-18T02:12:56;98382.84;;;-6.00;85.07
76478;BME280;65309;49.790;18.972;2022-12-18T02:18:05;98399.19;;;-6.05;85.95
76478;BME280;65309;49.790;18.972;2022-12-18T02:23:16;98396.53;;;-6.26;84.53
76478;BME280;65309;49.790;18.972;2022-12-18T02:28:26;98410.28;;;-6.19;86.20
76478;BME280;65309;49.790;18.972;2022-12-18T02:33:30;98409.28;;;-6.35;85.38
76478;BME280;65309;49.790;18.972;2022-12-18T02:38:34;98410.06;;;-6.55;86.63
76478;BME280;65309;49.790;18.972;2022-12-18T02:43:38;98414.88;;;-6.40;85.72
76478;BME280;65309;49.790;18.972;2022-12-18T02:48:40;98415.03;;;-6.03;85.72
76478;BME280;65309;49.790;18.972;2022-12-18T02:53:45;98417.31;;;-6.26;85.58
76478;BME280;65309;49.790;18.972;2022-12-18T02:58:57;98428.06;;;-6.47;85.85
76478;BME280;65309;49.790;18.972;2022-12-18T03:04:05;98435.47;;;-6.02;85.04
76478;BME280;65309;49.790;18.972;2022-12-18T03:09:12;98439.59;;;-6.26;84.64
76478;BME280;65309;49.790;18.972;2022-12-18T03:14:19;98442.44;;;-6.43;86.09
76478;BME280;65309;49.790;18.972;2022-12-18T03:19:27;98435.59;;;-6.20;86.04
76478;BME280;65309;49.790;18.972;2022-12-18T03:24:31;98444.25;;;-5.93;85.27
76478;BME280;65309;49.790;18.972;2022-12-18T03:29:37;98436.00;;;-5.76;83.63
76478;BME280;65309;49.790;18.972;2022-12-18T03:34:41;98447.75;;;-5.93;83.70
76478;BME280;65309;49.790;18.972;2022-12-18T03:39:44;98451.00;;;-5.87;84.64
76478;BME280;65309;49.790;18.972;2022-12-18T03:44:54;98454.38;;;-5.90;84.45
76478;BME280;65309;49.790;18.972;2022-12-18T03:50:04;98452.38;;;-6.14;84.44
76478;BME280;65309;49.790;18.972;2022-12-18T03:55:13;98472.44;;;-5.91;85.03
76478;BME280;65309;49.790;18.972;2022-12-18T04:00:18;98474.69;;;-5.93;83.97
76478;BME280;65309;49.790;18.972;2022-12-18T04:05:22;98487.94;;;-6.09;85.19
76478;BME280;65309;49.790;18.972;2022-12-18T04:10:26;98479.94;;;-5.84;82.91
76478;BME280;65309;49.790;18.972;2022-12-18T04:15:29;98481.09;;;-5.85;82.30
76478;BME280;65309;49.790;18.972;2022-12-18T04:20:33;98491.16;;;-6.36;84.01
76478;BME280;65309;49.790;18.972;2022-12-18T04:25:35;98501.63;;;-6.14;84.49
76478;BME280;65309;49.790;18.972;2022-12-18T04:30:38;98512.19;;;-6.09;83.70
76478;BME280;65309;49.790;18.972;2022-12-18T04:35:40;98521.75;;;-6.40;83.16
76478;BME280;65309;49.790;18.972;2022-12-18T04:40:43;98516.41;;;-6.49;84.23
76478;BME280;65309;49.790;18.972;2022-12-18T04:45:46;98522.13;;;-6.59;84.47
76478;BME280;65309;49.790;18.972;2022-12-18T04:50:48;98526.53;;;-6.25;84.66
76478;BME280;65309;49.790;18.972;2022-12-18T04:55:50;98531.94;;;-6.25;83.58
76478;BME280;65309;49.790;18.972;2022-12-18T05:00:53;98536.38;;;-6.29;84.69
76478;BME280;65309;49.790;18.972;2022-12-18T05:05:55;98549.25;;;-6.35;83.95
76478;BME280;65309;49.790;18.972;2022-12-18T05:11:01;98564.78;;;-6.40;83.36
76478;BME280;65309;49.790;18.972;2022-12-18T05:16:05;98568.63;;;-6.50;83.91
76478;BME280;65309;49.790;18.972;2022-12-18T05:21:08;98572.88;;;-6.40;84.07
76478;BME280;65309;49.790;18.972;2022-12-18T05:26:15;98560.31;;;-6.28;83.49
76478;BME280;65309;49.790;18.972;2022-12-18T05:31:18;98566.34;;;-6.31;83.49
76478;BME280;65309;49.790;18.972;2022-12-18T05:36:20;98579.31;;;-6.03;81.85
76478;BME280;65309;49.790;18.972;2022-12-18T05:41:22;98572.28;;;-5.96;82.85
76478;BME280;65309;49.790;18.972;2022-12-18T05:46:26;98582.50;;;-6.31;84.09
76478;BME280;65309;49.790;18.972;2022-12-18T05:51:28;98584.56;;;-6.74;84.04
76478;BME280;65309;49.790;18.972;2022-12-18T05:56:30;98581.75;;;-6.86;84.07
76478;BME280;65309;49.790;18.972;2022-12-18T06:01:33;98579.41;;;-6.97;84.90
76478;BME280;65309;49.790;18.972;2022-12-18T06:06:35;98585.59;;;-7.05;83.75
76478;BME280;65309;49.790;18.972;2022-12-18T06:11:38;98599.56;;;-7.20;84.87
76478;BME280;65309;49.790;18.972;2022-12-18T06:16:42;98606.03;;;-7.38;84.58
76478;BME280;65309;49.790;18.972;2022-12-18T06:21:44;98606.69;;;-7.32;85.52
76478;BME280;65309;49.790;18.972;2022-12-18T06:26:46;98610.00;;;-7.27;85.33
76478;BME280;65309;49.790;18.972;2022-12-18T06:31:49;98603.16;;;-7.07;85.15
76478;BME280;65309;49.790;18.972;2022-12-18T06:36:51;98614.50;;;-6.84;84.44
76478;BME280;65309;49.790;18.972;2022-12-18T06:41:53;98616.88;;;-6.91;83.87
76478;BME280;65309;49.790;18.972;2022-12-18T06:46:56;98621.00;;;-6.85;83.97
76478;BME280;65309;49.790;18.972;2022-12-18T06:51:59;98627.66;;;-6.91;83.27
76478;BME280;65309;49.790;18.972;2022-12-18T06:57:00;98625.22;;;-6.76;82.03
76478;BME280;65309;49.790;18.972;2022-12-18T07:02:04;98641.31;;;-6.59;81.95
76478;BME280;65309;49.790;18.972;2022-12-18T07:07:06;98645.47;;;-6.70;81.21
76478;BME280;65309;49.790;18.972;2022-12-18T07:12:08;98653.78;;;-6.45;80.34
76478;BME280;65309;49.790;18.972;2022-12-18T07:17:11;98659.44;;;-6.30;80.41
76478;BME280;65309;49.790;18.972;2022-12-18T07:22:13;98669.31;;;-6.51;78.80
76478;BME280;65309;49.790;18.972;2022-12-18T07:27:15;98674.31;;;-6.96;78.58
76478;BME280;65309;49.790;18.972;2022-12-18T07:32:18;98674.66;;;-6.97;78.07
76478;BME280;65309;49.790;18.972;2022-12-18T07:37:20;98684.91;;;-7.00;78.67
76478;BME280;65309;49.790;18.972;2022-12-18T07:42:22;98687.75;;;-7.05;78.03
76478;BME280;65309;49.790;18.972;2022-12-18T07:47:35;98685.06;;;-7.05;78.84
76478;BME280;65309;49.790;18.972;2022-12-18T07:52:38;98683.38;;;-7.35;76.94
76478;BME280;65309;49.790;18.972;2022-12-18T07:57:40;98696.47;;;-6.99;76.93
76478;BME280;65309;49.790;18.972;2022-12-18T08:02:53;98695.50;;;-6.77;76.58
76478;BME280;65309;49.790;18.972;2022-12-18T08:07:55;98691.41;;;-7.09;75.57
76478;BME280;65309;49.790;18.972;2022-12-18T08:12:57;98698.47;;;-7.73;75.52
76478;BME280;65309;49.790;18.972;2022-12-18T08:18:07;98698.84;;;-7.32;76.20
76478;BME280;65309;49.790;18.972;2022-12-18T08:23:15;98698.34;;;-7.51;75.93
76478;BME280;65309;49.790;18.972;2022-12-18T08:28:17;98704.97;;;-7.57;75.32
76478;BME280;65309;49.790;18.972;2022-12-18T08:33:20;98717.47;;;-7.61;75.82
76478;BME280;65309;49.790;18.972;2022-12-18T08:38:22;98716.66;;;-7.70;75.15
76478;BME280;65309;49.790;18.972;2022-12-18T08:43:26;98721.56;;;-7.55;75.64
76478;BME280;65309;49.790;18.972;2022-12-18T08:48:49;98730.06;;;-7.70;75.68
76478;BME280;65309;49.790;18.972;2022-12-18T08:53:52;98736.59;;;-7.54;75.33
76478;BME280;65309;49.790;18.972;2022-12-18T08:58:54;98737.84;;;-7.60;76.92
76478;BME280;65309;49.790;18.972;2022-12-18T09:03:57;98744.22;;;-7.39;76.45
76478;BME280;65309;49.790;18.972;2022-12-18T09:08:59;98741.06;;;-7.32;76.42
76478;BME280;65309;49.790;18.972;2022-12-18T09:14:02;98747.06;;;-7.27;76.24
76478;BME280;65309;49.790;18.972;2022-12-18T09:19:06;98744.84;;;-7.25;75.92
76478;BME280;65309;49.790;18.972;2022-12-18T09:24:12;98748.03;;;-7.14;76.78
76478;BME280;65309;49.790;18.972;2022-12-18T09:29:14;98753.09;;;-6.87;77.03
76478;BME280;65309;49.790;18.972;2022-12-18T09:34:19;98757.34;;;-6.43;77.13
76478;BME280;65309;49.790;18.972;2022-12-18T09:39:23;98749.56;;;-6.44;76.58
76478;BME280;65309;49.790;18.972;2022-12-18T09:44:27;98751.47;;;-6.36;75.47
76478;BME280;65309;49.790;18.972;2022-12-18T09:49:35;98746.22;;;-6.33;75.79
76478;BME280;65309;49.790;18.972;2022-12-18T09:54:40;98748.47;;;-6.52;75.36
76478;BME280;65309;49.790;18.972;2022-12-18T09:59:46;98756.69;;;-6.31;76.20
76478;BME280;65309;49.790;18.972;2022-12-18T10:05:00;98758.53;;;-6.15;75.29
76478;BME280;65309;49.790;18.972;2022-12-18T10:10:10;98746.38;;;-6.29;77.30
76478;BME280;65309;49.790;18.972;2022-12-18T10:15:19;98733.06;;;-6.34;77.92
76478;BME280;65309;49.790;18.972;2022-12-18T10:20:32;98730.88;;;-5.94;75.57
76478;BME280;65309;49.790;18.972;2022-12-18T10:25:41;98734.06;;;-5.72;77.32
76478;BME280;65309;49.790;18.972;2022-12-18T10:30:45;98728.44;;;-5.29;76.52
76478;BME280;65309;49.790;18.972;2022-12-18T10:35:50;98716.34;;;-5.73;75.87
76478;BME280;65309;49.790;18.972;2022-12-18T10:40:54;98724.47;;;-5.81;75.24
76478;BME280;65309;49.790;18.972;2022-12-18T10:46:07;98704.78;;;-6.02;74.64
76478;BME280;65309;49.790;18.972;2022-12-18T10:51:21;98715.00;;;-5.87;75.24
76478;BME280;65309;49.790;18.972;2022-12-18T10:56:26;98708.00;;;-6.64;78.25
76478;BME280;65309;49.790;18.972;2022-12-18T11:01:32;98700.44;;;-6.33;76.10
76478;BME280;65309;49.790;18.972;2022-12-18T11:06:55;98690.53;;;-6.58;78.24
76478;BME280;65309;49.790;18.972;2022-12-18T11:11:59;98695.63;;;-6.65;77.66
76478;BME280;65309;49.790;18.972;2022-12-18T11:17:01;98689.91;;;-6.55;77.79
76478;BME280;65309;49.790;18.972;2022-12-18T11:22:26;98687.97;;;-6.46;77.44
76478;BME280;65309;49.790;18.972;2022-12-18T11:27:30;98680.59;;;-6.58;78.23
76478;BME280;65309;49.790;18.972;2022-12-18T11:32:34;98686.13;;;-6.63;78.35
76478;BME280;65309;49.790;18.972;2022-12-18T11:37:39;98681.69;;;-6.59;77.84
76478;BME280;65309;49.790;18.972;2022-12-18T11:42:48;98683.59;;;-6.59;79.12
76478;BME280;65309;49.790;18.972;2022-12-18T11:47:56;98684.97;;;-6.36;78.42
76478;BME280;65309;49.790;18.972;2022-12-18T11:53:00;98673.78;;;-6.17;77.19
76478;BME280;65309;49.790;18.972;2022-12-18T11:58:12;98689.72;;;-6.50;76.95
76478;BME280;65309;49.790;18.972;2022-12-18T12:03:27;98691.81;;;-6.47;77.96
76478;BME280;65309;49.790;18.972;2022-12-18T12:08:41;98709.09;;;-6.74;78.92
76478;BME280;65309;49.790;18.972;2022-12-18T12:13:55;98715.09;;;-6.60;78.13
76478;BME280;65309;49.790;18.972;2022-12-18T12:19:10;98712.72;;;-6.53;79.33
76478;BME280;65309;49.790;18.972;2022-12-18T12:24:29;98721.56;;;-6.52;79.14
76478;BME280;65309;49.790;18.972;2022-12-18T12:29:43;98717.69;;;-6.97;78.78
76478;BME280;65309;49.790;18.972;2022-12-18T12:34:58;98728.91;;;-6.95;80.00
76478;BME280;65309;49.790;18.972;2022-12-18T12:40:16;98732.81;;;-6.76;80.33
76478;BME280;65309;49.790;18.972;2022-12-18T12:45:42;98734.75;;;-6.76;79.89
76478;BME280;65309;49.790;18.972;2022-12-18T12:50:47;98730.19;;;-7.02;78.58
76478;BME280;65309;49.790;18.972;2022-12-18T12:55:52;98738.69;;;-7.17;81.33
76478;BME280;65309;49.790;18.972;2022-12-18T13:01:01;98743.19;;;-7.69;80.00
76478;BME280;65309;49.790;18.972;2022-12-18T13:06:12;98746.13;;;-7.87;81.05
76478;BME280;65309;49.790;18.972;2022-12-18T13:11:29;98748.16;;;-8.02;80.94
76478;BME280;65309;49.790;18.972;2022-12-18T13:17:17;98750.56;;;-8.22;80.87
76478;BME280;65309;49.790;18.972;2022-12-18T13:22:31;98752.53;;;-8.45;81.00
76478;BME280;65309;49.790;18.972;2022-12-18T13:28:00;98759.00;;;-8.68;82.23
76478;BME280;65309;49.790;18.972;2022-12-18T13:39:22;98759.38;;;-9.06;82.56
76478;BME280;65309;49.790;18.972;2022-12-18T13:44:36;98762.38;;;-9.21;82.87
76478;BME280;65309;49.790;18.972;2022-12-18T13:49:43;98757.09;;;-9.48;81.59
76478;BME280;65309;49.790;18.972;2022-12-18T13:54:49;98759.06;;;-9.40;84.30
76478;BME280;65309;49.790;18.972;2022-12-18T13:59:54;98748.97;;;-9.57;83.10
76478;BME280;65309;49.790;18.972;2022-12-18T14:04:57;98759.78;;;-9.75;85.13
76478;BME280;65309;49.790;18.972;2022-12-18T14:09:59;98752.53;;;-9.89;84.09
76478;BME280;65309;49.790;18.972;2022-12-18T14:15:31;98742.66;;;-10.15;85.27
76478;BME280;65309;49.790;18.972;2022-12-18T14:20:36;98756.53;;;-10.27;86.03
76478;BME280;65309;49.790;18.972;2022-12-18T14:25:45;98759.19;;;-10.41;85.98
76478;BME280;65309;49.790;18.972;2022-12-18T14:30:49;98768.56;;;-10.43;85.68
76478;BME280;65309;49.790;18.972;2022-12-18T14:35:55;98762.63;;;-10.73;84.92
76478;BME280;65309;49.790;18.972;2022-12-18T14:40:58;98767.41;;;-10.69;85.46
76478;BME280;65309;49.790;18.972;2022-12-18T14:46:04;98757.13;;;-10.62;87.49
76478;BME280;65309;49.790;18.972;2022-12-18T14:51:15;98752.78;;;-10.91;85.69
76478;BME280;65309;49.790;18.972;2022-12-18T14:56:20;98751.22;;;-11.29;86.57
76478;BME280;65309;49.790;18.972;2022-12-18T15:01:27;98746.88;;;-11.62;86.28
76478;BME280;65309;49.790;18.972;2022-12-18T15:06:32;98768.59;;;-11.69;87.49
76478;BME280;65309;49.790;18.972;2022-12-18T15:11:44;98778.47;;;-11.70;87.98
76478;BME280;65309;49.790;18.972;2022-12-18T15:16:52;98770.13;;;-11.82;88.25
76478;BME280;65309;49.790;18.972;2022-12-18T15:21:54;98779.81;;;-11.91;87.70
76478;BME280;65309;49.790;18.972;2022-12-18T15:26:59;98784.00;;;-11.85;87.26
76478;BME280;65309;49.790;18.972;2022-12-18T15:32:05;98794.75;;;-11.90;87.77
76478;BME280;65309;49.790;18.972;2022-12-18T15:37:17;98803.25;;;-12.11;88.00
76478;BME280;65309;49.790;18.972;2022-12-18T15:42:20;98795.97;;;-12.30;86.62
76478;BME280;65309;49.790;18.972;2022-12-18T15:47:48;98793.69;;;-12.41;87.79
76478;BME280;65309;49.790;18.972;2022-12-18T15:52:53;98803.69;;;-12.28;88.31
76478;BME280;65309;49.790;18.972;2022-12-18T15:57:57;98810.34;;;-12.31;87.56
76478;BME280;65309;49.790;18.972;2022-12-18T16:03:00;98816.50;;;-12.30;87.73
76478;BME280;65309;49.790;18.972;2022-12-18T16:08:03;98814.81;;;-12.21;87.11
76478;BME280;65309;49.790;18.972;2022-12-18T16:13:06;98810.78;;;-12.19;86.99
76478;BME280;65309;49.790;18.972;2022-12-18T16:18:09;98816.91;;;-12.18;88.17
76478;BME280;65309;49.790;18.972;2022-12-18T16:23:11;98831.94;;;-12.27;88.68
76478;BME280;65309;49.790;18.972;2022-12-18T16:28:13;98830.88;;;-12.31;88.26
76478;BME280;65309;49.790;18.972;2022-12-18T16:33:17;98839.78;;;-12.41;88.05
76478;BME280;65309;49.790;18.972;2022-12-18T16:38:19;98839.81;;;-12.46;87.46
76478;BME280;65309;49.790;18.972;2022-12-18T16:43:21;98845.41;;;-12.47;88.27
76478;BME280;65309;49.790;18.972;2022-12-18T16:48:25;98835.94;;;-12.30;88.82
76478;BME280;65309;49.790;18.972;2022-12-18T16:53:28;98825.81;;;-12.28;88.89
76478;BME280;65309;49.790;18.972;2022-12-18T16:58:30;98826.16;;;-12.39;87.40
76478;BME280;65309;49.790;18.972;2022-12-18T17:03:34;98812.50;;;-12.62;86.84
76478;BME280;65309;49.790;18.972;2022-12-18T17:08:36;98795.47;;;-12.61;86.49
76478;BME280;65309;49.790;18.972;2022-12-18T17:13:38;98792.19;;;-12.52;87.85
76478;BME280;65309;49.790;18.972;2022-12-18T17:18:42;98769.28;;;-12.53;88.87
76478;BME280;65309;49.790;18.972;2022-12-18T17:23:44;98767.44;;;-12.29;87.89
76478;BME280;65309;49.790;18.972;2022-12-18T17:28:46;98764.72;;;-12.24;88.23
76478;BME280;65309;49.790;18.972;2022-12-18T17:33:50;98758.34;;;-11.81;89.43
76478;BME280;65309;49.790;18.972;2022-12-18T17:38:55;98757.84;;;-11.83;87.84
76478;BME280;65309;49.790;18.972;2022-12-18T17:43:59;98755.81;;;-11.91;88.27
76478;BME280;65309;49.790;18.972;2022-12-18T17:49:03;98762.28;;;-11.97;88.05
76478;BME280;65309;49.790;18.972;2022-12-18T17:54:05;98784.59;;;-11.88;87.92
76478;BME280;65309;49.790;18.972;2022-12-18T17:59:08;98787.19;;;-11.83;88.63
76478;BME280;65309;49.790;18.972;2022-12-18T18:04:11;98787.25;;;-11.88;89.29
76478;BME280;65309;49.790;18.972;2022-12-18T18:09:13;98774.09;;;-12.03;87.77
76478;BME280;65309;49.790;18.972;2022-12-18T18:14:19;98783.50;;;-12.10;87.47
76478;BME280;65309;49.790;18.972;2022-12-18T18:19:23;98778.41;;;-12.07;88.42
76478;BME280;65309;49.790;18.972;2022-12-18T18:24:25;98778.06;;;-12.00;89.51
76478;BME280;65309;49.790;18.972;2022-12-18T18:29:28;98775.56;;;-11.92;88.97
76478;BME280;65309;49.790;18.972;2022-12-18T18:34:35;98782.81;;;-11.97;88.25
76478;BME280;65309;49.790;18.972;2022-12-18T18:39:37;98791.06;;;-11.94;89.13
76478;BME280;65309;49.790;18.972;2022-12-18T18:44:39;98797.16;;;-11.70;88.00
76478;BME280;65309;49.790;18.972;2022-12-18T18:49:50;98797.81;;;-11.78;87.55
76478;BME280;65309;49.790;18.972;2022-12-18T18:54:52;98802.44;;;-11.88;89.07
76478;BME280;65309;49.790;18.972;2022-12-18T19:00:15;98809.34;;;-11.63;89.75
76478;BME280;65309;49.790;18.972;2022-12-18T19:05:19;98824.31;;;-11.68;89.14
76478;BME280;65309;49.790;18.972;2022-12-18T19:10:21;98832.94;;;-11.52;88.66
76478;BME280;65309;49.790;18.972;2022-12-18T19:15:23;98847.28;;;-11.67;88.61
76478;BME280;65309;49.790;18.972;2022-12-18T19:20:26;98835.38;;;-11.74;90.01
76478;BME280;65309;49.790;18.972;2022-12-18T19:25:29;98828.50;;;-11.56;89.24
76478;BME280;65309;49.790;18.972;2022-12-18T19:30:42;98831.84;;;-11.70;89.45
76478;BME280;65309;49.790;18.972;2022-12-18T19:35:46;98841.53;;;-11.74;88.38
76478;BME280;65309;49.790;18.972;2022-12-18T19:40:48;98847.72;;;-11.78;88.02
76478;BME280;65309;49.790;18.972;2022-12-18T19:45:53;98856.25;;;-11.81;87.80
76478;BME280;65309;49.790;18.972;2022-12-18T19:50:56;98854.75;;;-11.69;89.76
76478;BME280;65309;49.790;18.972;2022-12-18T19:56:04;98844.03;;;-11.63;89.58
76478;BME280;65309;49.790;18.972;2022-12-18T20:01:06;98834.59;;;-11.75;88.28
76478;BME280;65309;49.790;18.972;2022-12-18T20:06:13;98830.94;;;-11.84;87.33
76478;BME280;65309;49.790;18.972;2022-12-18T20:11:16;98830.94;;;-12.07;87.34
76478;BME280;65309;49.790;18.972;2022-12-18T20:16:18;98818.75;;;-11.90;87.97
76478;BME280;65309;49.790;18.972;2022-12-18T20:21:22;98817.91;;;-11.67;88.55
76478;BME280;65309;49.790;18.972;2022-12-18T20:26:24;98817.69;;;-11.09;90.60
76478;BME280;65309;49.790;18.972;2022-12-18T20:31:27;98827.44;;;-10.81;89.42
76478;BME280;65309;49.790;18.972;2022-12-18T20:36:30;98805.72;;;-10.93;89.31
76478;BME280;65309;49.790;18.972;2022-12-18T20:41:35;98810.19;;;-10.69;89.83
76478;BME280;65309;49.790;18.972;2022-12-18T20:46:39;98809.72;;;-10.58;88.95
76478;BME280;65309;49.790;18.972;2022-12-18T20:51:43;98809.59;;;-10.34;89.51
76478;BME280;65309;49.790;18.972;2022-12-18T20:56:45;98800.47;;;-10.33;89.17
76478;BME280;65309;49.790;18.972;2022-12-18T21:01:47;98794.16;;;-10.10;88.83
76478;BME280;65309;49.790;18.972;2022-12-18T21:06:52;98794.34;;;-10.34;87.94
76478;BME280;65309;49.790;18.972;2022-12-18T21:12:03;98784.13;;;-10.45;88.02
76478;BME280;65309;49.790;18.972;2022-12-18T21:17:24;98789.63;;;-10.23;88.71
76478;BME280;65309;49.790;18.972;2022-12-18T21:22:30;98782.56;;;-10.33;88.10
76478;BME280;65309;49.790;18.972;2022-12-18T21:27:32;98780.00;;;-10.24;88.64
76478;BME280;65309;49.790;18.972;2022-12-18T21:32:34;98767.03;;;-10.17;88.47
76478;BME280;65309;49.790;18.972;2022-12-18T21:37:38;98768.19;;;-10.09;88.41
76478;BME280;65309;49.790;18.972;2022-12-18T21:42:40;98769.00;;;-10.09;88.75
76478;BME280;65309;49.790;18.972;2022-12-18T21:48:01;98767.31;;;-10.05;88.16
76478;BME280;65309;49.790;18.972;2022-12-18T21:53:04;98772.38;;;-10.03;87.88
76478;BME280;65309;49.790;18.972;2022-12-18T21:58:06;98776.31;;;-10.01;87.97
76478;BME280;65309;49.790;18.972;2022-12-18T22:03:08;98785.13;;;-10.14;87.48
76478;BME280;65309;49.790;18.972;2022-12-18T22:08:21;98779.31;;;-10.16;88.21
76478;BME280;65309;49.790;18.972;2022-12-18T22:13:23;98778.00;;;-10.05;88.17
76478;BME280;65309;49.790;18.972;2022-12-18T22:18:25;98777.34;;;-9.69;88.86
76478;BME280;65309;49.790;18.972;2022-12-18T22:23:29;98777.72;;;-9.62;88.34
76478;BME280;65309;49.790;18.972;2022-12-18T22:28:31;98778.50;;;-9.48;88.60
76478;BME280;65309;49.790;18.972;2022-12-18T22:33:52;98781.88;;;-9.56;88.53
76478;BME280;65309;49.790;18.972;2022-12-18T22:38:55;98783.78;;;-9.57;88.16
76478;BME280;65309;49.790;18.972;2022-12-18T22:43:57;98795.16;;;-9.38;88.67
76478;BME280;65309;49.790;18.972;2022-12-18T22:48:59;98800.78;;;-9.39;88.82
76478;BME280;65309;49.790;18.972;2022-12-18T22:54:03;98785.59;;;-9.30;88.35
76478;BME280;65309;49.790;18.972;2022-12-18T22:59:06;98795.75;;;-9.54;88.05
76478;BME280;65309;49.790;18.972;2022-12-18T23:04:10;98788.84;;;-9.69;88.51
76478;BME280;65309;49.790;18.972;2022-12-18T23:09:15;98794.56;;;-9.48;89.29
76478;BME280;65309;49.790;18.972;2022-12-18T23:14:17;98793.97;;;-9.72;88.25
76478;BME280;65309;49.790;18.972;2022-12-18T23:19:19;98800.34;;;-9.68;87.72
76478;BME280;65309;49.790;18.972;2022-12-18T23:24:25;98803.28;;;-9.29;89.02
76478;BME280;65309;49.790;18.972;2022-12-18T23:29:27;98786.72;;;-9.31;89.18
76478;BME280;65309;49.790;18.972;2022-12-18T23:34:29;98778.78;;;-9.36;88.13
76478;BME280;65309;49.790;18.972;2022-12-18T23:39:33;98792.00;;;-9.53;88.11
76478;BME280;65309;49.790;18.972;2022-12-18T23:44:34;98790.50;;;-9.59;88.13
76478;BME280;65309;49.790;18.972;2022-12-18T23:49:36;98785.94;;;-9.45;87.68
76478;BME280;65309;49.790;18.972;2022-12-18T23:54:40;98772.97;;;-9.65;86.80
76478;BME280;65309;49.790;18.972;2022-12-18T23:59:42;98774.13;;;-9.44;87.93
